Angora, Minnesota
Current Conditions -  °F | °C
As of 10:34 AM on Tuesday 21 Oct 2014 (Local Time) from KCQM Reporting Station
Overcast Overcast  
Wind Chill: 36°   Ceiling: 1600
Heat Index: 41°   Visibility: 10mi
Dew Point: 34°   Wind: 7mph
Humidity: 76%   Direction: 120°ESE
Pressure: 30.23"   Gusts: 16mph
Location:  47.77°N, 92.63°W
Report Text: KCQM 211534Z AUTO 12006G14KT 10SM OVC016 05/01 A3023 RMK AO2
Loading
Personal Weather Stations






























Interactive Weather Map
Tropical Storm Tracking
New forecast layout! Learn more

10-Day Weather Forecast

Advertisements
Track Severe Weather on mobile